sensor_id;sensor_type;location;lat;lon;timestamp;pressure;altitude;pressure_sealevel;temperature;humidity
15260;BME280;34462;51.368;12.364;2022-10-30T00:00:59;18970.50;;;-141.84;81.66
15260;BME280;34462;51.368;12.364;2022-10-30T00:03:27;18944.09;;;-141.84;81.13
15260;BME280;34462;51.368;12.364;2022-10-30T00:05:55;18990.81;;;-141.84;81.55
15260;BME280;34462;51.368;12.364;2022-10-30T00:08:23;18964.41;;;-141.84;81.64
15260;BME280;34462;51.368;12.364;2022-10-30T00:10:53;18940.03;;;-141.84;81.79
15260;BME280;34462;51.368;12.364;2022-10-30T00:13:21;18952.22;;;-141.84;82.07
15260;BME280;34462;51.368;12.364;2022-10-30T00:15:52;18952.22;;;-141.84;82.13
15260;BME280;34462;51.368;12.364;2022-10-30T00:18:20;18915.63;;;-141.84;82.07
15260;BME280;34462;51.368;12.364;2022-10-30T00:20:48;18911.56;;;-141.84;82.25
15260;BME280;34462;51.368;12.364;2022-10-30T00:23:16;18891.25;;;-141.84;82.58
15260;BME280;34462;51.368;12.364;2022-10-30T00:25:46;18895.31;;;-141.84;82.96
15260;BME280;34462;51.368;12.364;2022-10-30T00:28:15;18870.94;;;-141.84;83.22
15260;BME280;34462;51.368;12.364;2022-10-30T00:30:43;18905.47;;;-141.84;82.95
15260;BME280;34462;51.368;12.364;2022-10-30T00:33:11;18862.81;;;-141.84;82.96
15260;BME280;34462;51.368;12.364;2022-10-30T00:35:47;18899.38;;;-141.84;83.08
15260;BME280;34462;51.368;12.364;2022-10-30T00:38:15;18923.78;;;-141.84;82.32
15260;BME280;34462;51.368;12.364;2022-10-30T00:40:43;18980.66;;;-141.84;81.04
15260;BME280;34462;51.368;12.364;2022-10-30T00:46:15;18968.47;;;-141.84;79.49
15260;BME280;34462;51.368;12.364;2022-10-30T00:48:52;19000.97;;;-141.84;79.86
15260;BME280;34462;51.368;12.364;2022-10-30T00:51:22;18998.94;;;-141.84;80.08
15260;BME280;34462;51.368;12.364;2022-10-30T00:53:51;18988.78;;;-141.84;80.62
15260;BME280;34462;51.368;12.364;2022-10-30T00:56:21;18978.63;;;-141.84;81.13
15260;BME280;34462;51.368;12.364;2022-10-30T00:58:55;18931.91;;;-141.84;81.54
15260;BME280;34462;51.368;12.364;2022-10-30T01:01:27;18933.94;;;-141.84;82.02
15260;BME280;34462;51.368;12.364;2022-10-30T01:03:59;18868.91;;;-141.84;82.57
15260;BME280;34462;51.368;12.364;2022-10-30T01:06:33;18901.41;;;-141.84;82.94
15260;BME280;34462;51.368;12.364;2022-10-30T01:09:03;18842.50;;;-141.84;83.35
15260;BME280;34462;51.368;12.364;2022-10-30T01:11:31;18891.25;;;-141.84;83.48
15260;BME280;34462;51.368;12.364;2022-10-30T01:14:05;18852.66;;;-141.84;83.76
15260;BME280;34462;51.368;12.364;2022-10-30T01:16:57;18850.63;;;-141.84;84.21
15260;BME280;34462;51.368;12.364;2022-10-30T01:19:39;18846.56;;;-141.84;84.55
15260;BME280;34462;51.368;12.364;2022-10-30T01:22:28;18826.25;;;-141.84;84.92
15260;BME280;34462;51.368;12.364;2022-10-30T01:25:11;18818.09;;;-141.84;85.06
15260;BME280;34462;51.368;12.364;2022-10-30T01:27:56;18834.38;;;-141.84;85.21
15260;BME280;34462;51.368;12.364;2022-10-30T01:30:42;18814.03;;;-141.84;85.08
15260;BME280;34462;51.368;12.364;2022-10-30T01:33:30;18830.31;;;-141.84;85.17
15260;BME280;34462;51.368;12.364;2022-10-30T01:36:12;18814.03;;;-141.84;85.19
15260;BME280;34462;51.368;12.364;2022-10-30T01:38:46;18830.31;;;-141.84;85.09
15260;BME280;34462;51.368;12.364;2022-10-30T01:41:16;18822.19;;;-141.84;84.81
15260;BME280;34462;51.368;12.364;2022-10-30T01:43:47;18834.38;;;-141.84;84.43
15260;BME280;34462;51.368;12.364;2022-10-30T01:46:47;18838.44;;;-141.84;83.96
15260;BME280;34462;51.368;12.364;2022-10-30T01:49:38;18824.22;;;-141.84;83.96
15260;BME280;34462;51.368;12.364;2022-10-30T01:52:19;18826.25;;;-141.84;83.83
15260;BME280;34462;51.368;12.364;2022-10-30T01:54:58;18840.47;;;-141.84;83.57
15260;BME280;34462;51.368;12.364;2022-10-30T01:57:37;18828.28;;;-141.84;83.44
15260;BME280;34462;51.368;12.364;2022-10-30T02:00:11;18844.53;;;-141.84;83.36
15260;BME280;34462;51.368;12.364;2022-10-30T02:02:41;18862.81;;;-141.84;82.91
15260;BME280;34462;51.368;12.364;2022-10-30T02:05:19;18858.75;;;-141.84;82.80
15260;BME280;34462;51.368;12.364;2022-10-30T02:07:48;18895.31;;;-141.84;81.79
15260;BME280;34462;51.368;12.364;2022-10-30T02:10:16;18923.78;;;-141.84;81.54
15260;BME280;34462;51.368;12.364;2022-10-30T02:12:44;18893.28;;;-141.84;81.89
15260;BME280;34462;51.368;12.364;2022-10-30T02:15:12;18935.97;;;-141.84;81.79
15260;BME280;34462;51.368;12.364;2022-10-30T02:17:41;18893.28;;;-141.84;81.96
15260;BME280;34462;51.368;12.364;2022-10-30T02:20:16;18893.28;;;-141.84;81.96
15260;BME280;34462;51.368;12.364;2022-10-30T02:22:44;18919.69;;;-141.84;81.50
15260;BME280;34462;51.368;12.364;2022-10-30T02:25:14;18887.19;;;-141.84;81.27
15260;BME280;34462;51.368;12.364;2022-10-30T02:27:42;18897.34;;;-141.84;81.38
15260;BME280;34462;51.368;12.364;2022-10-30T02:30:11;18923.78;;;-141.84;81.66
15260;BME280;34462;51.368;12.364;2022-10-30T02:32:39;18909.53;;;-141.84;81.89
15260;BME280;34462;51.368;12.364;2022-10-30T02:35:08;18893.28;;;-141.84;81.82
15260;BME280;34462;51.368;12.364;2022-10-30T02:37:37;18883.13;;;-141.84;81.84
15260;BME280;34462;51.368;12.364;2022-10-30T02:40:07;18907.50;;;-141.84;81.83
15260;BME280;34462;51.368;12.364;2022-10-30T02:42:35;18899.38;;;-141.84;81.87
15260;BME280;34462;51.368;12.364;2022-10-30T02:45:04;18879.06;;;-141.84;81.64
15260;BME280;34462;51.368;12.364;2022-10-30T02:47:32;18907.50;;;-141.84;81.56
15260;BME280;34462;51.368;12.364;2022-10-30T02:50:00;18911.56;;;-141.84;81.50
15260;BME280;34462;51.368;12.364;2022-10-30T02:52:28;18931.91;;;-141.84;81.58
15260;BME280;34462;51.368;12.364;2022-10-30T02:54:57;18921.75;;;-141.84;81.39
15260;BME280;34462;51.368;12.364;2022-10-30T02:57:25;18950.19;;;-141.84;81.40
15260;BME280;34462;51.368;12.364;2022-10-30T02:59:53;18893.28;;;-141.84;81.55
15260;BME280;34462;51.368;12.364;2022-10-30T03:02:21;18909.53;;;-141.84;81.42
15260;BME280;34462;51.368;12.364;2022-10-30T03:04:49;18921.75;;;-141.84;80.97
15260;BME280;34462;51.368;12.364;2022-10-30T03:07:17;18921.75;;;-141.84;80.64
15260;BME280;34462;51.368;12.364;2022-10-30T03:09:45;18956.28;;;-141.84;80.79
15260;BME280;34462;51.368;12.364;2022-10-30T03:12:15;18905.47;;;-141.84;80.78
15260;BME280;34462;51.368;12.364;2022-10-30T03:14:43;18887.19;;;-141.84;80.76
15260;BME280;34462;51.368;12.364;2022-10-30T03:17:11;18940.03;;;-141.84;81.04
15260;BME280;34462;51.368;12.364;2022-10-30T03:19:39;18921.75;;;-141.84;81.31
15260;BME280;34462;51.368;12.364;2022-10-30T03:22:07;18903.44;;;-141.84;81.44
15260;BME280;34462;51.368;12.364;2022-10-30T03:24:35;18879.06;;;-141.84;81.66
15260;BME280;34462;51.368;12.364;2022-10-30T03:27:04;18921.75;;;-141.84;81.66
15260;BME280;34462;51.368;12.364;2022-10-30T03:29:33;18895.31;;;-141.84;81.79
15260;BME280;34462;51.368;12.364;2022-10-30T03:32:01;18899.38;;;-141.84;82.04
15260;BME280;34462;51.368;12.364;2022-10-30T03:34:29;18881.09;;;-141.84;82.14
15260;BME280;34462;51.368;12.364;2022-10-30T03:36:57;18921.75;;;-141.84;82.30
15260;BME280;34462;51.368;12.364;2022-10-30T03:39:25;18879.06;;;-141.84;82.36
15260;BME280;34462;51.368;12.364;2022-10-30T03:41:53;18891.25;;;-141.84;82.42
15260;BME280;34462;51.368;12.364;2022-10-30T03:44:21;18889.22;;;-141.84;82.50
15260;BME280;34462;51.368;12.364;2022-10-30T03:46:51;18850.63;;;-141.84;82.42
15260;BME280;34462;51.368;12.364;2022-10-30T03:49:19;18870.94;;;-141.84;82.55
15260;BME280;34462;51.368;12.364;2022-10-30T03:51:47;18875.00;;;-141.84;82.53
15260;BME280;34462;51.368;12.364;2022-10-30T03:54:15;18879.06;;;-141.84;82.50
15260;BME280;34462;51.368;12.364;2022-10-30T03:56:44;18870.94;;;-141.84;82.28
15260;BME280;34462;51.368;12.364;2022-10-30T03:59:12;18885.16;;;-141.84;82.19
15260;BME280;34462;51.368;12.364;2022-10-30T04:01:40;18883.13;;;-141.84;82.09
15260;BME280;34462;51.368;12.364;2022-10-30T04:04:09;18866.88;;;-141.84;81.95
15260;BME280;34462;51.368;12.364;2022-10-30T04:06:37;18915.63;;;-141.84;81.76
15260;BME280;34462;51.368;12.364;2022-10-30T04:09:05;18887.19;;;-141.84;81.26
15260;BME280;34462;51.368;12.364;2022-10-30T04:11:33;18923.78;;;-141.84;81.12
15260;BME280;34462;51.368;12.364;2022-10-30T04:14:01;18907.50;;;-141.84;80.97
15260;BME280;34462;51.368;12.364;2022-10-30T04:16:29;18921.75;;;-141.84;80.88
15260;BME280;34462;51.368;12.364;2022-10-30T04:18:57;18921.75;;;-141.84;80.76
15260;BME280;34462;51.368;12.364;2022-10-30T04:21:27;18903.44;;;-141.84;80.90
15260;BME280;34462;51.368;12.364;2022-10-30T04:23:55;18891.25;;;-141.84;80.96
15260;BME280;34462;51.368;12.364;2022-10-30T04:26:22;18925.81;;;-141.84;81.15
15260;BME280;34462;51.368;12.364;2022-10-30T04:28:50;18891.25;;;-141.84;80.76
15260;BME280;34462;51.368;12.364;2022-10-30T04:31:18;18915.63;;;-141.84;79.73
15260;BME280;34462;51.368;12.364;2022-10-30T04:33:46;18925.81;;;-141.84;79.71
15260;BME280;34462;51.368;12.364;2022-10-30T04:36:14;18889.22;;;-141.84;80.02
15260;BME280;34462;51.368;12.364;2022-10-30T04:38:45;18940.03;;;-141.84;80.46
15260;BME280;34462;51.368;12.364;2022-10-30T04:41:13;18907.50;;;-141.84;80.68
15260;BME280;34462;51.368;12.364;2022-10-30T04:43:41;18929.88;;;-141.84;80.69
15260;BME280;34462;51.368;12.364;2022-10-30T04:46:09;18893.28;;;-141.84;80.63
15260;BME280;34462;51.368;12.364;2022-10-30T04:48:37;18893.28;;;-141.84;80.79
15260;BME280;34462;51.368;12.364;2022-10-30T04:51:05;18909.53;;;-141.84;80.64
15260;BME280;34462;51.368;12.364;2022-10-30T04:53:34;18899.38;;;-141.84;80.54
15260;BME280;34462;51.368;12.364;2022-10-30T04:56:04;18911.56;;;-141.84;80.46
15260;BME280;34462;51.368;12.364;2022-10-30T04:58:32;18919.69;;;-141.84;80.21
15260;BME280;34462;51.368;12.364;2022-10-30T05:01:01;18964.41;;;-141.84;79.18
15260;BME280;34462;51.368;12.364;2022-10-30T05:03:29;18931.91;;;-141.84;79.80
15260;BME280;34462;51.368;12.364;2022-10-30T05:06:00;18919.69;;;-141.84;80.45
15260;BME280;34462;51.368;12.364;2022-10-30T05:08:29;18929.88;;;-141.84;80.52
15260;BME280;34462;51.368;12.364;2022-10-30T05:10:57;18897.34;;;-141.84;80.69
15260;BME280;34462;51.368;12.364;2022-10-30T05:13:27;18893.28;;;-141.84;81.03
15260;BME280;34462;51.368;12.364;2022-10-30T05:15:55;18891.25;;;-141.84;81.15
15260;BME280;34462;51.368;12.364;2022-10-30T05:18:23;18881.09;;;-141.84;81.20
15260;BME280;34462;51.368;12.364;2022-10-30T05:20:51;18907.50;;;-141.84;81.20
15260;BME280;34462;51.368;12.364;2022-10-30T05:23:19;18895.31;;;-141.84;81.13
15260;BME280;34462;51.368;12.364;2022-10-30T05:25:47;18879.06;;;-141.84;81.03
15260;BME280;34462;51.368;12.364;2022-10-30T05:28:15;18877.03;;;-141.84;80.93
15260;BME280;34462;51.368;12.364;2022-10-30T05:30:44;18923.78;;;-141.84;81.09
15260;BME280;34462;51.368;12.364;2022-10-30T05:33:13;18879.06;;;-141.84;81.17
15260;BME280;34462;51.368;12.364;2022-10-30T05:35:43;18901.41;;;-141.84;81.11
15260;BME280;34462;51.368;12.364;2022-10-30T05:38:12;18903.44;;;-141.84;80.77
15260;BME280;34462;51.368;12.364;2022-10-30T05:40:40;18919.69;;;-141.84;80.99
15260;BME280;34462;51.368;12.364;2022-10-30T05:43:08;18917.66;;;-141.84;80.56
15260;BME280;34462;51.368;12.364;2022-10-30T05:45:36;18911.56;;;-141.84;80.60
15260;BME280;34462;51.368;12.364;2022-10-30T05:48:06;18940.03;;;-141.84;80.39
15260;BME280;34462;51.368;12.364;2022-10-30T05:50:34;18923.78;;;-141.84;80.21
15260;BME280;34462;51.368;12.364;2022-10-30T05:53:04;18942.06;;;-141.84;79.48
15260;BME280;34462;51.368;12.364;2022-10-30T05:55:32;18921.75;;;-141.84;79.08
15260;BME280;34462;51.368;12.364;2022-10-30T05:58:03;18948.16;;;-141.84;79.24
15260;BME280;34462;51.368;12.364;2022-10-30T06:00:34;18919.69;;;-141.84;79.47
15260;BME280;34462;51.368;12.364;2022-10-30T06:03:06;18933.94;;;-141.84;79.53
15260;BME280;34462;51.368;12.364;2022-10-30T06:05:35;18962.38;;;-141.84;79.86
15260;BME280;34462;51.368;12.364;2022-10-30T06:08:05;18944.09;;;-141.84;80.06
15260;BME280;34462;51.368;12.364;2022-10-30T06:10:34;18917.66;;;-141.84;79.42
15260;BME280;34462;51.368;12.364;2022-10-30T06:13:05;18990.81;;;-141.84;78.68
15260;BME280;34462;51.368;12.364;2022-10-30T06:15:33;19013.16;;;-141.84;78.12
15260;BME280;34462;51.368;12.364;2022-10-30T06:18:01;18952.22;;;-141.84;78.78
15260;BME280;34462;51.368;12.364;2022-10-30T06:20:31;18927.84;;;-141.84;79.08
15260;BME280;34462;51.368;12.364;2022-10-30T06:23:01;18935.97;;;-141.84;79.57
15260;BME280;34462;51.368;12.364;2022-10-30T06:25:33;18964.41;;;-141.84;79.98
15260;BME280;34462;51.368;12.364;2022-10-30T06:28:08;18952.22;;;-141.84;79.91
15260;BME280;34462;51.368;12.364;2022-10-30T06:30:37;18933.94;;;-141.84;80.21
15260;BME280;34462;51.368;12.364;2022-10-30T06:33:05;18895.31;;;-141.84;80.59
15260;BME280;34462;51.368;12.364;2022-10-30T06:35:35;18948.16;;;-141.84;81.05
15260;BME280;34462;51.368;12.364;2022-10-30T06:38:03;18895.31;;;-141.84;81.26
15260;BME280;34462;51.368;12.364;2022-10-30T06:40:32;18875.00;;;-141.84;81.43
15260;BME280;34462;51.368;12.364;2022-10-30T06:43:00;18903.44;;;-141.84;81.24
15260;BME280;34462;51.368;12.364;2022-10-30T06:45:28;18868.91;;;-141.84;81.18
15260;BME280;34462;51.368;12.364;2022-10-30T06:47:58;18915.63;;;-141.84;81.12
15260;BME280;34462;51.368;12.364;2022-10-30T06:50:28;18923.78;;;-141.84;80.25
15260;BME280;34462;51.368;12.364;2022-10-30T06:52:57;18952.22;;;-141.84;79.31
15260;BME280;34462;51.368;12.364;2022-10-30T06:55:25;19007.06;;;-141.84;78.73
15260;BME280;34462;51.368;12.364;2022-10-30T06:57:54;19039.59;;;-141.84;77.82
15260;BME280;34462;51.368;12.364;2022-10-30T07:00:23;19039.59;;;-141.84;76.58
15260;BME280;34462;51.368;12.364;2022-10-30T07:02:59;19076.16;;;-141.84;75.54
15260;BME280;34462;51.368;12.364;2022-10-30T07:05:28;19078.19;;;-141.84;75.43
15260;BME280;34462;51.368;12.364;2022-10-30T07:07:58;19078.19;;;-141.84;75.65
15260;BME280;34462;51.368;12.364;2022-10-30T07:10:26;19135.09;;;-141.84;75.34
15260;BME280;34462;51.368;12.364;2022-10-30T07:12:55;19122.91;;;-141.84;75.63
15260;BME280;34462;51.368;12.364;2022-10-30T07:15:25;19137.13;;;-141.84;75.69
15260;BME280;34462;51.368;12.364;2022-10-30T07:20:25;19068.03;;;-141.84;75.78
15260;BME280;34462;51.368;12.364;2022-10-30T07:22:53;19088.34;;;-141.84;75.91
15260;BME280;34462;51.368;12.364;2022-10-30T07:25:23;19066.00;;;-141.84;76.11
15260;BME280;34462;51.368;12.364;2022-10-30T07:27:52;19082.25;;;-141.84;76.38
15260;BME280;34462;51.368;12.364;2022-10-30T07:30:23;19068.03;;;-141.84;76.33
15260;BME280;34462;51.368;12.364;2022-10-30T07:32:59;19092.41;;;-141.84;76.12
15260;BME280;34462;51.368;12.364;2022-10-30T07:35:29;19090.38;;;-141.84;75.97
15260;BME280;34462;51.368;12.364;2022-10-30T07:38:01;19066.00;;;-141.84;76.23
15260;BME280;34462;51.368;12.364;2022-10-30T07:40:32;19112.75;;;-141.84;76.44
15260;BME280;34462;51.368;12.364;2022-10-30T07:43:02;19082.25;;;-141.84;76.48
15260;BME280;34462;51.368;12.364;2022-10-30T07:45:31;19092.41;;;-141.84;76.35
15260;BME280;34462;51.368;12.364;2022-10-30T07:47:59;19068.03;;;-141.84;76.31
15260;BME280;34462;51.368;12.364;2022-10-30T07:50:28;19135.09;;;-141.84;75.77
15260;BME280;34462;51.368;12.364;2022-10-30T07:52:56;19145.25;;;-141.84;75.21
15260;BME280;34462;51.368;12.364;2022-10-30T07:55:24;19149.31;;;-141.84;74.43
15260;BME280;34462;51.368;12.364;2022-10-30T07:57:53;19169.63;;;-141.84;74.62
15260;BME280;34462;51.368;12.364;2022-10-30T08:00:22;19145.25;;;-141.84;74.57
15260;BME280;34462;51.368;12.364;2022-10-30T08:02:51;19147.28;;;-141.84;74.07
15260;BME280;34462;51.368;12.364;2022-10-30T08:05:23;19151.34;;;-141.84;74.64
15260;BME280;34462;51.368;12.364;2022-10-30T08:07:56;19167.59;;;-141.84;74.99
15260;BME280;34462;51.368;12.364;2022-10-30T08:10:25;19118.84;;;-141.84;75.40
15260;BME280;34462;51.368;12.364;2022-10-30T08:12:55;19137.13;;;-141.84;75.07
15260;BME280;34462;51.368;12.364;2022-10-30T08:15:23;19167.59;;;-141.84;75.45
15260;BME280;34462;51.368;12.364;2022-10-30T08:17:51;19149.31;;;-141.84;75.46
15260;BME280;34462;51.368;12.364;2022-10-30T08:20:21;19175.72;;;-141.84;75.74
15260;BME280;34462;51.368;12.364;2022-10-30T08:22:51;19153.38;;;-141.84;75.94
15260;BME280;34462;51.368;12.364;2022-10-30T08:25:23;19114.78;;;-141.84;76.01
15260;BME280;34462;51.368;12.364;2022-10-30T08:27:56;19151.34;;;-141.84;76.37
15260;BME280;34462;51.368;12.364;2022-10-30T08:30:27;19110.72;;;-141.84;76.50
15260;BME280;34462;51.368;12.364;2022-10-30T08:32:57;19088.34;;;-141.84;76.83
15260;BME280;34462;51.368;12.364;2022-10-30T08:35:26;19114.78;;;-141.84;76.74
15260;BME280;34462;51.368;12.364;2022-10-30T08:37:54;19102.56;;;-141.84;76.77
15260;BME280;34462;51.368;12.364;2022-10-30T08:40:25;19129.00;;;-141.84;76.87
15260;BME280;34462;51.368;12.364;2022-10-30T08:42:55;19106.66;;;-141.84;76.86
15260;BME280;34462;51.368;12.364;2022-10-30T08:45:24;19141.19;;;-141.84;76.19
15260;BME280;34462;51.368;12.364;2022-10-30T08:47:57;19185.88;;;-141.84;74.82
15260;BME280;34462;51.368;12.364;2022-10-30T08:50:27;19218.41;;;-141.84;73.36
15260;BME280;34462;51.368;12.364;2022-10-30T08:52:59;19299.69;;;-141.84;72.15
15260;BME280;34462;51.368;12.364;2022-10-30T08:55:28;19368.78;;;-141.84;70.94
15260;BME280;34462;51.368;12.364;2022-10-30T08:57:58;19401.28;;;-141.84;69.99
15260;BME280;34462;51.368;12.364;2022-10-30T09:00:27;19427.72;;;-141.84;69.36
15260;BME280;34462;51.368;12.364;2022-10-30T09:02:55;19462.25;;;-141.84;69.07
15260;BME280;34462;51.368;12.364;2022-10-30T09:05:24;19539.47;;;-141.84;68.10
15260;BME280;34462;51.368;12.364;2022-10-30T09:07:55;19588.25;;;-141.84;67.41
15260;BME280;34462;51.368;12.364;2022-10-30T09:10:24;19594.34;;;-141.84;67.26
15260;BME280;34462;51.368;12.364;2022-10-30T09:12:55;19592.31;;;-141.84;66.44
15260;BME280;34462;51.368;12.364;2022-10-30T09:15:26;19675.63;;;-141.84;66.09
15260;BME280;34462;51.368;12.364;2022-10-30T09:17:58;19738.66;;;-141.84;65.69
15260;BME280;34462;51.368;12.364;2022-10-30T09:20:28;19700.03;;;-141.84;65.63
15260;BME280;34462;51.368;12.364;2022-10-30T09:22:56;19716.28;;;-141.84;65.67
15260;BME280;34462;51.368;12.364;2022-10-30T09:25:25;19795.53;;;-141.84;65.16
15260;BME280;34462;51.368;12.364;2022-10-30T09:27:53;19801.66;;;-141.84;64.60
15260;BME280;34462;51.368;12.364;2022-10-30T09:30:23;19838.22;;;-141.84;63.86
15260;BME280;34462;51.368;12.364;2022-10-30T09:32:55;19878.88;;;-141.84;63.85
15260;BME280;34462;51.368;12.364;2022-10-30T09:35:25;19901.22;;;-141.84;63.26
15260;BME280;34462;51.368;12.364;2022-10-30T09:37:54;19947.97;;;-141.84;63.19
15260;BME280;34462;51.368;12.364;2022-10-30T09:40:38;19990.66;;;-141.84;62.22
15260;BME280;34462;51.368;12.364;2022-10-30T09:43:23;19986.59;;;-141.84;62.27
15260;BME280;34462;51.368;12.364;2022-10-30T09:46:14;20051.63;;;-141.84;61.99
15260;BME280;34462;51.368;12.364;2022-10-30T09:49:07;20076.03;;;-141.84;61.30
15260;BME280;34462;51.368;12.364;2022-10-30T09:52:00;20124.81;;;-141.84;60.82
15260;BME280;34462;51.368;12.364;2022-10-30T09:54:49;20134.97;;;-141.84;60.75
15260;BME280;34462;51.368;12.364;2022-10-30T09:57:34;20171.56;;;-141.84;60.95
15260;BME280;34462;51.368;12.364;2022-10-30T10:00:10;20171.56;;;-141.84;60.98
15260;BME280;34462;51.368;12.364;2022-10-30T10:02:55;20214.22;;;-141.84;60.09
15260;BME280;34462;51.368;12.364;2022-10-30T10:05:33;20220.34;;;-141.84;59.13
15260;BME280;34462;51.368;12.364;2022-10-30T10:08:12;20250.81;;;-141.84;58.82
15260;BME280;34462;51.368;12.364;2022-10-30T10:10:45;20269.13;;;-141.84;59.46
15260;BME280;34462;51.368;12.364;2022-10-30T10:13:28;20313.84;;;-141.84;59.41
15260;BME280;34462;51.368;12.364;2022-10-30T10:16:09;20315.88;;;-141.84;59.53
15260;BME280;34462;51.368;12.364;2022-10-30T10:18:45;20391.06;;;-141.84;57.75
15260;BME280;34462;51.368;12.364;2022-10-30T10:21:23;20460.19;;;-141.84;57.69
15260;BME280;34462;51.368;12.364;2022-10-30T10:23:54;20429.69;;;-141.84;57.58
15260;BME280;34462;51.368;12.364;2022-10-30T10:26:29;20460.19;;;-141.84;57.33
15260;BME280;34462;51.368;12.364;2022-10-30T10:29:22;20429.69;;;-141.84;57.36
15260;BME280;34462;51.368;12.364;2022-10-30T10:32:12;20472.38;;;-141.84;57.20
15260;BME280;34462;51.368;12.364;2022-10-30T10:35:00;20504.91;;;-141.84;57.21
15260;BME280;34462;51.368;12.364;2022-10-30T10:37:40;20513.03;;;-141.84;57.36
15260;BME280;34462;51.368;12.364;2022-10-30T10:40:31;20604.50;;;-141.84;56.51
15260;BME280;34462;51.368;12.364;2022-10-30T10:43:20;20533.34;;;-141.84;56.92
15260;BME280;34462;51.368;12.364;2022-10-30T10:46:21;20521.16;;;-141.84;57.09
15260;BME280;34462;51.368;12.364;2022-10-30T10:49:07;20567.91;;;-141.84;57.31
15260;BME280;34462;51.368;12.364;2022-10-30T10:51:46;20610.59;;;-141.84;56.64
15260;BME280;34462;51.368;12.364;2022-10-30T10:54:22;20671.59;;;-141.84;54.94
15260;BME280;34462;51.368;12.364;2022-10-30T10:56:51;20689.88;;;-141.84;54.37
15260;BME280;34462;51.368;12.364;2022-10-30T10:59:26;20677.69;;;-141.84;55.22
15260;BME280;34462;51.368;12.364;2022-10-30T11:02:29;20661.44;;;-141.84;55.26
15260;BME280;34462;51.368;12.364;2022-10-30T11:05:06;20722.41;;;-141.84;55.60
15260;BME280;34462;51.368;12.364;2022-10-30T11:07:46;20712.25;;;-141.84;55.72
15260;BME280;34462;51.368;12.364;2022-10-30T11:10:18;20675.66;;;-141.84;55.73
15260;BME280;34462;51.368;12.364;2022-10-30T11:12:46;20679.72;;;-141.84;55.95
15260;BME280;34462;51.368;12.364;2022-10-30T11:15:28;20702.09;;;-141.84;55.72
15260;BME280;34462;51.368;12.364;2022-10-30T11:18:01;20728.50;;;-141.84;55.29
15260;BME280;34462;51.368;12.364;2022-10-30T11:20:40;20767.13;;;-141.84;55.52
15260;BME280;34462;51.368;12.364;2022-10-30T11:23:37;20740.69;;;-141.84;55.35
15260;BME280;34462;51.368;12.364;2022-10-30T11:26:32;20769.16;;;-141.84;54.44
15260;BME280;34462;51.368;12.364;2022-10-30T11:29:10;20834.22;;;-141.84;53.98
15260;BME280;34462;51.368;12.364;2022-10-30T11:31:41;20789.50;;;-141.84;53.97
15260;BME280;34462;51.368;12.364;2022-10-30T11:34:23;20846.41;;;-141.84;53.86
15260;BME280;34462;51.368;12.364;2022-10-30T11:36:53;20866.75;;;-141.84;53.40
15260;BME280;34462;51.368;12.364;2022-10-30T11:39:24;20862.69;;;-141.84;53.42
15260;BME280;34462;51.368;12.364;2022-10-30T11:42:01;20846.41;;;-141.84;53.48
15260;BME280;34462;51.368;12.364;2022-10-30T11:44:35;20891.13;;;-141.84;52.61
15260;BME280;34462;51.368;12.364;2022-10-30T11:47:06;20897.25;;;-141.84;52.09
15260;BME280;34462;51.368;12.364;2022-10-30T11:49:44;20931.78;;;-141.84;51.59
15260;BME280;34462;51.368;12.364;2022-10-30T11:52:16;20944.00;;;-141.84;51.47
15260;BME280;34462;51.368;12.364;2022-10-30T11:54:49;20937.91;;;-141.84;51.70
15260;BME280;34462;51.368;12.364;2022-10-30T11:57:25;20956.19;;;-141.84;51.50
15260;BME280;34462;51.368;12.364;2022-10-30T11:59:56;20964.31;;;-141.84;51.92
15260;BME280;34462;51.368;12.364;2022-10-30T12:02:41;20994.81;;;-141.84;49.79
15260;BME280;34462;51.368;12.364;2022-10-30T12:05:31;21025.31;;;-141.84;50.45
15260;BME280;34462;51.368;12.364;2022-10-30T12:08:19;21027.34;;;-141.84;51.23
15260;BME280;34462;51.368;12.364;2022-10-30T12:10:58;21039.53;;;-141.84;50.99
15260;BME280;34462;51.368;12.364;2022-10-30T12:13:35;20982.63;;;-141.84;51.70
15260;BME280;34462;51.368;12.364;2022-10-30T12:16:17;21017.19;;;-141.84;51.76
15260;BME280;34462;51.368;12.364;2022-10-30T12:19:00;20986.69;;;-141.84;51.80
15260;BME280;34462;51.368;12.364;2022-10-30T12:21:35;21004.97;;;-141.84;50.93
15260;BME280;34462;51.368;12.364;2022-10-30T12:24:15;21047.69;;;-141.84;51.79
15260;BME280;34462;51.368;12.364;2022-10-30T12:26:50;21094.44;;;-141.84;51.45
15260;BME280;34462;51.368;12.364;2022-10-30T12:29:24;21216.41;;;-141.84;50.26
15260;BME280;34462;51.368;12.364;2022-10-30T12:32:17;21470.56;;;-141.84;47.11
15260;BME280;34462;51.368;12.364;2022-10-30T12:34:56;21551.91;;;-141.84;46.50
15260;BME280;34462;51.368;12.364;2022-10-30T12:37:31;21588.50;;;-141.84;46.63
15260;BME280;34462;51.368;12.364;2022-10-30T12:40:07;21501.06;;;-141.84;47.36
15260;BME280;34462;51.368;12.364;2022-10-30T12:42:49;21433.97;;;-141.84;48.41
15260;BME280;34462;51.368;12.364;2022-10-30T12:45:28;21356.69;;;-141.84;48.72
15260;BME280;34462;51.368;12.364;2022-10-30T12:48:04;21309.94;;;-141.84;49.38
15260;BME280;34462;51.368;12.364;2022-10-30T12:50:42;21230.66;;;-141.84;50.43
15260;BME280;34462;51.368;12.364;2022-10-30T12:53:26;21220.47;;;-141.84;50.56
15260;BME280;34462;51.368;12.364;2022-10-30T12:56:01;21161.53;;;-141.84;51.21
15260;BME280;34462;51.368;12.364;2022-10-30T12:58:43;21179.81;;;-141.84;51.67
15260;BME280;34462;51.368;12.364;2022-10-30T13:01:23;21159.50;;;-141.84;52.04
15260;BME280;34462;51.368;12.364;2022-10-30T13:04:06;21116.78;;;-141.84;52.65